AUA42CQ LEPA-LOWW
Flight info
| Callsign | AUA42CQ |
|---|---|
| Flight time | 2h 1m |
| Altitude | 32000 |
| Route | MEROS DCT LAPIT DCT CHELY DCT LUMAS/N0446F340 DCT UNANA/N0443F300 DCT STP/N0447F360 DCT RAPED DCT PIGOS DCT EKSID DCT NOSTA DCT EGHIN/N0448F350 DCT ARALD DCT ABTAN ABTAN2W |
| Aircraft | A321/M-SDE3FGHIRWY/LB1 |
Departure
| Time | 2026-05-01 10:24 |
|---|---|
| Airport | Palma de Mallorca Airport (LEPA) |
Arrival
| Time | 2026-05-01 12:26 |
|---|---|
| Airport | Vienna International Airport (LOWW) |
| Time | Latitude | Longitude | Altitude | Speed | Heading |
|---|---|---|---|---|---|
| 2026-05-01 09:38 | 39.54651 | 2.73430 | 38 ft | 0 kts | 259° |
| 2026-05-01 10:16 | 39.54653 | 2.73444 | 38 ft | 4 kts | 263° |
| 2026-05-01 10:17 | 39.54656 | 2.73472 | 38 ft | 4 kts | 257° |
| 2026-05-01 10:17 | 39.54687 | 2.73504 | 35 ft | 4 kts | 154° |
| 2026-05-01 10:17 | 39.54705 | 2.73490 | 35 ft | 0 kts | 149° |
| 2026-05-01 10:20 | 39.54702 | 2.73492 | 35 ft | 3 kts | 149° |
| 2026-05-01 10:20 | 39.54655 | 2.73530 | 37 ft | 13 kts | 148° |
| 2026-05-01 10:20 | 39.54602 | 2.73628 | 38 ft | 14 kts | 136° |
| 2026-05-01 10:21 | 39.54536 | 2.73592 | 38 ft | 12 kts | 234° |
| 2026-05-01 10:21 | 39.54424 | 2.73356 | 37 ft | 15 kts | 238° |
| 2026-05-01 10:21 | 39.54374 | 2.73249 | 38 ft | 13 kts | 238° |
| 2026-05-01 10:22 | 39.54272 | 2.73034 | 38 ft | 18 kts | 238° |
| 2026-05-01 10:22 | 39.54153 | 2.72990 | 38 ft | 11 kts | 104° |
| 2026-05-01 10:23 | 39.54151 | 2.73117 | 38 ft | 20 kts | 90° |
| 2026-05-01 10:23 | 39.54291 | 2.73516 | 38 ft | 57 kts | 59° |
| 2026-05-01 10:23 | 39.54586 | 2.74146 | 37 ft | 113 kts | 58° |
| 2026-05-01 10:24 | 39.55664 | 2.76416 | 651 ft | 155 kts | 59° |
| 2026-05-01 10:24 | 39.56800 | 2.78905 | 1605 ft | 176 kts | 61° |
| 2026-05-01 10:25 | 39.58175 | 2.81953 | 2302 ft | 208 kts | 60° |
| 2026-05-01 10:25 | 39.59673 | 2.85253 | 3615 ft | 216 kts | 60° |
| 2026-05-01 10:26 | 39.60440 | 2.86933 | 4336 ft | 217 kts | 60° |
| 2026-05-01 10:26 | 39.61214 | 2.88629 | 5021 ft | 220 kts | 60° |
| 2026-05-01 10:26 | 39.62814 | 2.92168 | 6052 ft | 242 kts | 62° |
| 2026-05-01 10:27 | 39.64598 | 2.96289 | 6852 ft | 274 kts | 62° |
| 2026-05-01 10:27 | 39.66501 | 3.00701 | 8102 ft | 286 kts | 62° |
| 2026-05-01 10:28 | 39.67496 | 3.03006 | 8747 ft | 292 kts | 62° |
| 2026-05-01 10:28 | 39.69515 | 3.07677 | 10051 ft | 301 kts | 61° |
| 2026-05-01 10:28 | 39.70558 | 3.10091 | 10436 ft | 316 kts | 61° |
| 2026-05-01 10:29 | 39.72855 | 3.15418 | 10733 ft | 356 kts | 61° |
| 2026-05-01 10:29 | 39.74076 | 3.18258 | 11196 ft | 363 kts | 61° |
| 2026-05-01 10:30 | 39.76555 | 3.24012 | 12351 ft | 370 kts | 60° |
| 2026-05-01 10:30 | 39.79649 | 3.29408 | 13539 ft | 377 kts | 48° |
| 2026-05-01 10:31 | 39.83107 | 3.34585 | 14635 ft | 383 kts | 48° |
| 2026-05-01 10:31 | 39.86608 | 3.39856 | 15660 ft | 388 kts | 48° |
| 2026-05-01 10:32 | 39.90170 | 3.45218 | 16673 ft | 394 kts | 48° |
| 2026-05-01 10:32 | 39.91971 | 3.47930 | 17157 ft | 397 kts | 48° |
| 2026-05-01 10:32 | 39.95602 | 3.53401 | 18118 ft | 402 kts | 48° |
| 2026-05-01 10:33 | 39.99278 | 3.58955 | 18937 ft | 407 kts | 48° |
| 2026-05-01 10:33 | 40.03007 | 3.64601 | 19649 ft | 412 kts | 48° |
| 2026-05-01 10:34 | 40.04886 | 3.67447 | 19998 ft | 415 kts | 48° |
| 2026-05-01 10:34 | 40.06779 | 3.70320 | 20344 ft | 417 kts | 48° |
| 2026-05-01 10:34 | 40.08653 | 3.73169 | 20682 ft | 420 kts | 48° |
| 2026-05-01 10:35 | 40.12483 | 3.78991 | 21371 ft | 425 kts | 48° |
| 2026-05-01 10:35 | 40.14411 | 3.81923 | 21716 ft | 427 kts | 48° |
| 2026-05-01 10:35 | 40.16356 | 3.84881 | 22068 ft | 430 kts | 48° |
| 2026-05-01 10:35 | 40.18308 | 3.87858 | 22415 ft | 432 kts | 48° |
| 2026-05-01 10:36 | 40.22240 | 3.93876 | 23136 ft | 438 kts | 48° |
| 2026-05-01 10:36 | 40.24222 | 3.96910 | 23485 ft | 440 kts | 48° |
| 2026-05-01 10:36 | 40.26221 | 3.99973 | 23839 ft | 443 kts | 48° |
| 2026-05-01 10:37 | 40.28228 | 4.03052 | 24128 ft | 445 kts | 48° |
| 2026-05-01 10:37 | 40.32279 | 4.09260 | 24730 ft | 450 kts | 48° |
| 2026-05-01 10:37 | 40.34313 | 4.12387 | 25019 ft | 452 kts | 48° |
| 2026-05-01 10:38 | 40.36357 | 4.15534 | 25310 ft | 455 kts | 48° |
| 2026-05-01 10:38 | 40.38410 | 4.18702 | 25599 ft | 457 kts | 47° |
| 2026-05-01 10:38 | 40.40471 | 4.21889 | 25880 ft | 459 kts | 47° |
| 2026-05-01 10:38 | 40.42546 | 4.25098 | 26160 ft | 461 kts | 47° |
| 2026-05-01 10:39 | 40.44625 | 4.28321 | 26445 ft | 463 kts | 47° |
| 2026-05-01 10:39 | 40.46784 | 4.31463 | 26718 ft | 464 kts | 41° |
| 2026-05-01 10:39 | 40.49279 | 4.34142 | 26974 ft | 462 kts | 31° |
| 2026-05-01 10:39 | 40.52061 | 4.36234 | 27243 ft | 460 kts | 21° |
| 2026-05-01 10:40 | 40.55049 | 4.37718 | 27517 ft | 458 kts | 12° |
| 2026-05-01 10:40 | 40.58153 | 4.38604 | 27793 ft | 456 kts | 6° |
| 2026-05-01 10:40 | 40.61280 | 4.39347 | 28061 ft | 458 kts | 6° |
| 2026-05-01 10:40 | 40.64422 | 4.40100 | 28336 ft | 460 kts | 6° |
| 2026-05-01 10:41 | 40.67580 | 4.40857 | 28608 ft | 462 kts | 6° |
| 2026-05-01 10:41 | 40.70741 | 4.41618 | 28860 ft | 463 kts | 6° |
| 2026-05-01 10:41 | 40.77112 | 4.43161 | 29334 ft | 467 kts | 6° |
| 2026-05-01 10:42 | 40.80310 | 4.43932 | 29558 ft | 468 kts | 6° |
| 2026-05-01 10:42 | 40.82426 | 4.44439 | 29704 ft | 469 kts | 6° |
| 2026-05-01 10:42 | 40.85641 | 4.45210 | 29897 ft | 470 kts | 6° |
| 2026-05-01 10:42 | 40.88863 | 4.45988 | 30097 ft | 472 kts | 6° |
| 2026-05-01 10:43 | 40.93143 | 4.47024 | 30432 ft | 471 kts | 6° |
| 2026-05-01 10:43 | 40.95316 | 4.47551 | 30594 ft | 470 kts | 5° |
| 2026-05-01 10:43 | 40.98528 | 4.48327 | 30826 ft | 470 kts | 5° |
| 2026-05-01 10:43 | 41.01747 | 4.49108 | 31060 ft | 469 kts | 5° |
| 2026-05-01 10:44 | 41.04947 | 4.49888 | 31293 ft | 469 kts | 5° |
| 2026-05-01 10:44 | 41.08161 | 4.50674 | 31543 ft | 468 kts | 5° |
| 2026-05-01 10:44 | 41.11369 | 4.51458 | 31759 ft | 468 kts | 5° |
| 2026-05-01 10:44 | 41.14565 | 4.52235 | 32005 ft | 468 kts | 5° |
| 2026-05-01 10:45 | 41.17768 | 4.53012 | 32246 ft | 467 kts | 5° |
| 2026-05-01 10:45 | 41.20925 | 4.53779 | 32470 ft | 467 kts | 5° |
| 2026-05-01 10:45 | 41.24122 | 4.54560 | 32710 ft | 467 kts | 5° |
| 2026-05-01 10:45 | 41.27321 | 4.55338 | 32958 ft | 466 kts | 4° |
| 2026-05-01 10:46 | 41.30506 | 4.56107 | 33193 ft | 466 kts | 4° |
| 2026-05-01 10:46 | 41.33695 | 4.56877 | 33428 ft | 466 kts | 4° |
| 2026-05-01 10:46 | 41.36885 | 4.57655 | 33673 ft | 465 kts | 4° |
| 2026-05-01 10:46 | 41.40071 | 4.58441 | 33919 ft | 465 kts | 4° |
| 2026-05-01 10:47 | 41.43253 | 4.59227 | 34154 ft | 465 kts | 4° |
| 2026-05-01 10:47 | 41.49574 | 4.60798 | 34256 ft | 458 kts | 4° |
| 2026-05-01 10:48 | 41.55828 | 4.62345 | 34256 ft | 456 kts | 4° |
| 2026-05-01 10:48 | 41.62070 | 4.63867 | 34258 ft | 456 kts | 4° |
| 2026-05-01 10:49 | 41.68292 | 4.65438 | 34263 ft | 459 kts | 7° |
| 2026-05-01 10:49 | 41.74261 | 4.68799 | 34270 ft | 475 kts | 27° |
| 2026-05-01 10:50 | 41.79352 | 4.74588 | 34263 ft | 483 kts | 40° |
| 2026-05-01 10:50 | 41.84111 | 4.80891 | 34273 ft | 484 kts | 40° |
| 2026-05-01 10:51 | 41.88890 | 4.87225 | 34260 ft | 484 kts | 40° |
| 2026-05-01 10:51 | 41.93697 | 4.93590 | 34269 ft | 484 kts | 40° |
| 2026-05-01 10:52 | 41.98491 | 4.99963 | 34273 ft | 485 kts | 40° |
| 2026-05-01 10:52 | 42.03277 | 5.06339 | 34281 ft | 485 kts | 40° |
| 2026-05-01 10:53 | 42.08081 | 5.12738 | 34300 ft | 485 kts | 40° |
| 2026-05-01 10:53 | 42.12869 | 5.19145 | 34296 ft | 485 kts | 40° |
| 2026-05-01 10:54 | 42.17656 | 5.25581 | 34303 ft | 485 kts | 40° |
| 2026-05-01 10:54 | 42.22423 | 5.32007 | 34304 ft | 485 kts | 40° |
| 2026-05-01 10:55 | 42.27189 | 5.38430 | 34309 ft | 484 kts | 40° |
| 2026-05-01 10:55 | 42.31953 | 5.44861 | 34315 ft | 484 kts | 40° |
| 2026-05-01 10:56 | 42.36708 | 5.51295 | 34322 ft | 483 kts | 40° |
| 2026-05-01 10:56 | 42.41457 | 5.57739 | 34320 ft | 483 kts | 41° |
| 2026-05-01 10:57 | 42.46194 | 5.64181 | 34317 ft | 482 kts | 41° |
| 2026-05-01 10:57 | 42.50917 | 5.70617 | 34323 ft | 482 kts | 41° |
| 2026-05-01 10:58 | 42.55645 | 5.77080 | 34322 ft | 481 kts | 41° |
| 2026-05-01 10:58 | 42.60323 | 5.83480 | 34319 ft | 481 kts | 41° |
| 2026-05-01 10:59 | 42.65031 | 5.89936 | 34329 ft | 481 kts | 41° |
| 2026-05-01 10:59 | 42.69725 | 5.96405 | 34330 ft | 480 kts | 41° |
| 2026-05-01 11:00 | 42.74410 | 6.02866 | 34322 ft | 480 kts | 41° |
| 2026-05-01 11:00 | 42.79106 | 6.09339 | 34325 ft | 480 kts | 41° |
| 2026-05-01 11:01 | 42.83778 | 6.15820 | 34327 ft | 480 kts | 41° |
| 2026-05-01 11:01 | 42.88703 | 6.21863 | 34333 ft | 476 kts | 36° |
| 2026-05-01 11:02 | 42.93813 | 6.27703 | 34336 ft | 475 kts | 36° |
| 2026-05-01 11:02 | 42.98833 | 6.33462 | 34315 ft | 473 kts | 36° |
| 2026-05-01 11:03 | 43.03900 | 6.39297 | 34322 ft | 473 kts | 36° |
| 2026-05-01 11:03 | 43.08921 | 6.45095 | 34319 ft | 472 kts | 36° |
| 2026-05-01 11:04 | 43.13899 | 6.50841 | 34323 ft | 471 kts | 36° |
| 2026-05-01 11:04 | 43.18888 | 6.56627 | 34326 ft | 470 kts | 36° |
| 2026-05-01 11:05 | 43.23470 | 6.63038 | 34329 ft | 475 kts | 51° |
| 2026-05-01 11:05 | 43.27350 | 6.70386 | 34337 ft | 475 kts | 51° |
| 2026-05-01 11:06 | 43.31231 | 6.77715 | 34351 ft | 474 kts | 51° |
| 2026-05-01 11:06 | 43.35094 | 6.85051 | 34354 ft | 474 kts | 51° |
| 2026-05-01 11:07 | 43.40866 | 6.96068 | 34365 ft | 473 kts | 51° |
| 2026-05-01 11:07 | 43.44713 | 7.03391 | 34370 ft | 472 kts | 51° |
| 2026-05-01 11:08 | 43.48543 | 7.10724 | 34372 ft | 471 kts | 51° |
| 2026-05-01 11:09 | 43.54257 | 7.21720 | 34369 ft | 469 kts | 51° |
| 2026-05-01 11:09 | 43.58051 | 7.29031 | 34372 ft | 469 kts | 51° |
| 2026-05-01 11:10 | 43.63726 | 7.40000 | 34367 ft | 468 kts | 51° |
| 2026-05-01 11:10 | 43.67506 | 7.47330 | 34364 ft | 467 kts | 51° |
| 2026-05-01 11:11 | 43.71273 | 7.54653 | 34363 ft | 467 kts | 51° |
| 2026-05-01 11:11 | 43.74996 | 7.61918 | 34355 ft | 466 kts | 51° |
| 2026-05-01 11:12 | 43.78736 | 7.69242 | 34347 ft | 465 kts | 51° |
| 2026-05-01 11:12 | 43.82464 | 7.76552 | 34350 ft | 464 kts | 51° |
| 2026-05-01 11:13 | 43.86210 | 7.83881 | 34574 ft | 466 kts | 51° |
| 2026-05-01 11:13 | 43.88090 | 7.87551 | 34800 ft | 466 kts | 51° |
| 2026-05-01 11:13 | 43.89964 | 7.91211 | 35027 ft | 465 kts | 51° |
| 2026-05-01 11:14 | 43.91832 | 7.94878 | 35258 ft | 464 kts | 51° |
| 2026-05-01 11:14 | 43.93687 | 7.98530 | 35498 ft | 463 kts | 51° |
| 2026-05-01 11:14 | 43.95544 | 8.02187 | 35743 ft | 462 kts | 51° |
| 2026-05-01 11:14 | 43.97395 | 8.05837 | 35948 ft | 461 kts | 51° |
| 2026-05-01 11:15 | 43.99241 | 8.09484 | 36162 ft | 461 kts | 51° |
| 2026-05-01 11:15 | 44.01083 | 8.13128 | 36305 ft | 461 kts | 51° |
| 2026-05-01 11:15 | 44.04749 | 8.20410 | 36330 ft | 460 kts | 51° |
| 2026-05-01 11:16 | 44.08499 | 8.27573 | 36329 ft | 457 kts | 48° |
| 2026-05-01 11:16 | 44.12471 | 8.34463 | 36337 ft | 455 kts | 46° |
| 2026-05-01 11:17 | 44.16472 | 8.41287 | 36336 ft | 455 kts | 47° |
| 2026-05-01 11:17 | 44.20412 | 8.48196 | 36356 ft | 455 kts | 48° |
| 2026-05-01 11:18 | 44.24299 | 8.55144 | 36351 ft | 455 kts | 48° |
| 2026-05-01 11:18 | 44.28187 | 8.62106 | 36357 ft | 454 kts | 48° |
| 2026-05-01 11:19 | 44.32080 | 8.69055 | 36347 ft | 454 kts | 48° |
| 2026-05-01 11:19 | 44.35969 | 8.76010 | 36347 ft | 453 kts | 48° |
| 2026-05-01 11:20 | 44.39838 | 8.82957 | 36355 ft | 453 kts | 48° |
| 2026-05-01 11:20 | 44.43706 | 8.89904 | 36352 ft | 452 kts | 47° |
| 2026-05-01 11:21 | 44.47568 | 8.96853 | 36355 ft | 452 kts | 48° |
| 2026-05-01 11:21 | 44.51410 | 9.03806 | 36373 ft | 451 kts | 48° |
| 2026-05-01 11:22 | 44.55242 | 9.10752 | 36375 ft | 450 kts | 48° |
| 2026-05-01 11:22 | 44.59058 | 9.17703 | 36384 ft | 450 kts | 48° |
| 2026-05-01 11:23 | 44.62875 | 9.24649 | 36384 ft | 448 kts | 48° |
| 2026-05-01 11:23 | 44.66666 | 9.31582 | 36385 ft | 447 kts | 48° |
| 2026-05-01 11:24 | 44.70454 | 9.38519 | 36389 ft | 447 kts | 48° |
| 2026-05-01 11:25 | 44.75482 | 9.47741 | 36401 ft | 445 kts | 49° |
| 2026-05-01 11:25 | 44.81122 | 9.58121 | 36406 ft | 444 kts | 49° |
| 2026-05-01 11:26 | 44.86762 | 9.68532 | 36412 ft | 443 kts | 49° |
| 2026-05-01 11:27 | 44.90486 | 9.75437 | 36409 ft | 442 kts | 49° |
| 2026-05-01 11:27 | 44.94203 | 9.82343 | 36411 ft | 441 kts | 49° |
| 2026-05-01 11:28 | 44.97907 | 9.89243 | 36408 ft | 440 kts | 49° |
| 2026-05-01 11:28 | 45.01603 | 9.96144 | 36405 ft | 440 kts | 49° |
| 2026-05-01 11:29 | 45.07131 | 10.06490 | 36398 ft | 438 kts | 50° |
| 2026-05-01 11:30 | 45.12626 | 10.16820 | 36407 ft | 437 kts | 50° |
| 2026-05-01 11:30 | 45.16276 | 10.23704 | 36401 ft | 436 kts | 50° |
| 2026-05-01 11:31 | 45.19907 | 10.30568 | 36412 ft | 435 kts | 50° |
| 2026-05-01 11:31 | 45.23536 | 10.37439 | 36415 ft | 434 kts | 50° |
| 2026-05-01 11:32 | 45.27155 | 10.44297 | 36424 ft | 433 kts | 50° |
| 2026-05-01 11:32 | 45.30759 | 10.51149 | 36426 ft | 432 kts | 50° |
| 2026-05-01 11:33 | 45.34336 | 10.57982 | 36426 ft | 431 kts | 50° |
| 2026-05-01 11:33 | 45.37918 | 10.64845 | 36411 ft | 430 kts | 50° |
| 2026-05-01 11:34 | 45.41482 | 10.71675 | 36411 ft | 429 kts | 50° |
| 2026-05-01 11:34 | 45.45035 | 10.78481 | 36412 ft | 428 kts | 50° |
| 2026-05-01 11:35 | 45.48572 | 10.85302 | 36411 ft | 427 kts | 50° |
| 2026-05-01 11:35 | 45.52088 | 10.92101 | 36411 ft | 426 kts | 50° |
| 2026-05-01 11:36 | 45.55598 | 10.98895 | 36411 ft | 425 kts | 51° |
| 2026-05-01 11:36 | 45.59094 | 11.05683 | 36410 ft | 424 kts | 51° |
| 2026-05-01 11:37 | 45.62583 | 11.12467 | 36405 ft | 423 kts | 51° |
| 2026-05-01 11:37 | 45.66059 | 11.19244 | 36396 ft | 422 kts | 51° |
| 2026-05-01 11:38 | 45.69525 | 11.26013 | 36403 ft | 422 kts | 51° |
| 2026-05-01 11:38 | 45.72985 | 11.32785 | 36394 ft | 421 kts | 51° |
| 2026-05-01 11:39 | 45.76432 | 11.39558 | 36397 ft | 420 kts | 51° |
| 2026-05-01 11:39 | 45.79868 | 11.46321 | 36394 ft | 420 kts | 51° |
| 2026-05-01 11:40 | 45.83300 | 11.53090 | 36399 ft | 419 kts | 51° |
| 2026-05-01 11:40 | 45.86713 | 11.59856 | 36396 ft | 418 kts | 51° |
| 2026-05-01 11:41 | 45.90114 | 11.66606 | 36393 ft | 418 kts | 51° |
| 2026-05-01 11:41 | 45.93533 | 11.73383 | 36393 ft | 417 kts | 51° |
| 2026-05-01 11:42 | 45.96954 | 11.80181 | 36387 ft | 417 kts | 51° |
| 2026-05-01 11:42 | 46.00335 | 11.86937 | 36386 ft | 416 kts | 51° |
| 2026-05-01 11:43 | 46.03712 | 11.93695 | 36387 ft | 415 kts | 51° |
| 2026-05-01 11:43 | 46.07071 | 12.00429 | 36352 ft | 409 kts | 52° |
| 2026-05-01 11:44 | 46.11978 | 12.10324 | 36355 ft | 402 kts | 52° |
| 2026-05-01 11:44 | 46.15228 | 12.16883 | 36356 ft | 402 kts | 52° |
| 2026-05-01 11:45 | 46.18459 | 12.23412 | 36357 ft | 401 kts | 52° |
| 2026-05-01 11:45 | 46.21696 | 12.29969 | 36356 ft | 401 kts | 52° |
| 2026-05-01 11:46 | 46.24944 | 12.36575 | 36362 ft | 401 kts | 52° |
| 2026-05-01 11:46 | 46.28146 | 12.43096 | 36360 ft | 401 kts | 52° |
| 2026-05-01 11:47 | 46.31374 | 12.49684 | 36360 ft | 400 kts | 52° |
| 2026-05-01 11:47 | 46.34590 | 12.56263 | 36360 ft | 401 kts | 53° |
| 2026-05-01 11:48 | 46.37822 | 12.62898 | 36350 ft | 400 kts | 53° |
| 2026-05-01 11:48 | 46.41025 | 12.69490 | 36337 ft | 399 kts | 53° |
| 2026-05-01 11:49 | 46.44201 | 12.76039 | 36348 ft | 400 kts | 53° |
| 2026-05-01 11:49 | 46.47402 | 12.82652 | 36349 ft | 401 kts | 53° |
| 2026-05-01 11:50 | 46.50601 | 12.89273 | 36346 ft | 400 kts | 53° |
| 2026-05-01 11:50 | 46.53796 | 12.95906 | 36346 ft | 400 kts | 53° |
| 2026-05-01 11:51 | 46.56981 | 13.02527 | 36342 ft | 400 kts | 53° |
| 2026-05-01 11:51 | 46.60167 | 13.09172 | 36349 ft | 400 kts | 53° |
| 2026-05-01 11:52 | 46.63350 | 13.15817 | 36348 ft | 400 kts | 53° |
| 2026-05-01 11:52 | 46.66516 | 13.22462 | 36349 ft | 400 kts | 53° |
| 2026-05-01 11:53 | 46.69443 | 13.29355 | 36352 ft | 401 kts | 60° |
| 2026-05-01 11:53 | 46.72007 | 13.36590 | 36356 ft | 401 kts | 60° |
| 2026-05-01 11:54 | 46.74576 | 13.43813 | 36357 ft | 401 kts | 60° |
| 2026-05-01 11:54 | 46.77140 | 13.51033 | 36368 ft | 402 kts | 60° |
| 2026-05-01 11:55 | 46.79702 | 13.58273 | 36369 ft | 401 kts | 60° |
| 2026-05-01 11:55 | 46.82250 | 13.65502 | 36372 ft | 400 kts | 60° |
| 2026-05-01 11:56 | 46.84791 | 13.72754 | 36373 ft | 400 kts | 60° |
| 2026-05-01 11:56 | 46.87325 | 13.79987 | 36378 ft | 400 kts | 60° |
| 2026-05-01 11:57 | 46.89432 | 13.86007 | 36380 ft | 400 kts | 60° |
| 2026-05-01 11:57 | 46.92384 | 13.94478 | 36382 ft | 400 kts | 60° |
| 2026-05-01 11:58 | 46.94901 | 14.01723 | 36385 ft | 400 kts | 60° |
| 2026-05-01 11:59 | 46.98682 | 14.12594 | 36388 ft | 399 kts | 60° |
| 2026-05-01 11:59 | 47.00777 | 14.18675 | 36389 ft | 399 kts | 60° |
| 2026-05-01 12:00 | 47.04527 | 14.29570 | 36396 ft | 399 kts | 60° |
| 2026-05-01 12:01 | 47.08266 | 14.40488 | 36392 ft | 399 kts | 61° |
| 2026-05-01 12:01 | 47.10742 | 14.47772 | 36385 ft | 399 kts | 62° |
| 2026-05-01 12:02 | 47.12407 | 14.55582 | 36387 ft | 403 kts | 72° |
| 2026-05-01 12:02 | 47.13780 | 14.63562 | 36379 ft | 403 kts | 72° |
| 2026-05-01 12:03 | 47.15141 | 14.71474 | 36384 ft | 402 kts | 72° |
| 2026-05-01 12:03 | 47.16509 | 14.79496 | 36277 ft | 402 kts | 72° |
| 2026-05-01 12:03 | 47.17183 | 14.83475 | 36025 ft | 400 kts | 72° |
| 2026-05-01 12:04 | 47.17854 | 14.87444 | 35752 ft | 400 kts | 72° |
| 2026-05-01 12:04 | 47.18519 | 14.91360 | 35090 ft | 400 kts | 72° |
| 2026-05-01 12:04 | 47.19207 | 14.95405 | 34187 ft | 405 kts | 72° |
| 2026-05-01 12:04 | 47.19892 | 14.99426 | 33200 ft | 408 kts | 72° |
| 2026-05-01 12:05 | 47.20574 | 15.03445 | 32279 ft | 410 kts | 72° |
| 2026-05-01 12:05 | 47.21936 | 15.11554 | 31040 ft | 404 kts | 72° |
| 2026-05-01 12:05 | 47.22599 | 15.15549 | 30448 ft | 401 kts | 72° |
| 2026-05-01 12:06 | 47.23252 | 15.19497 | 29809 ft | 396 kts | 72° |
| 2026-05-01 12:06 | 47.23900 | 15.23419 | 29242 ft | 390 kts | 72° |
| 2026-05-01 12:06 | 47.24540 | 15.27284 | 28676 ft | 385 kts | 72° |
| 2026-05-01 12:06 | 47.25167 | 15.31078 | 28131 ft | 379 kts | 72° |
| 2026-05-01 12:07 | 47.25788 | 15.34832 | 27590 ft | 374 kts | 72° |
| 2026-05-01 12:07 | 47.26401 | 15.38526 | 27050 ft | 369 kts | 72° |
| 2026-05-01 12:07 | 47.27005 | 15.42176 | 26527 ft | 364 kts | 72° |
| 2026-05-01 12:07 | 47.27598 | 15.45771 | 26010 ft | 359 kts | 73° |
| 2026-05-01 12:08 | 47.28179 | 15.49319 | 25514 ft | 353 kts | 73° |
| 2026-05-01 12:08 | 47.28747 | 15.52810 | 25034 ft | 347 kts | 73° |
| 2026-05-01 12:08 | 47.29302 | 15.56240 | 24573 ft | 341 kts | 73° |
| 2026-05-01 12:08 | 47.29847 | 15.59607 | 24119 ft | 335 kts | 73° |
| 2026-05-01 12:09 | 47.30384 | 15.62913 | 23645 ft | 330 kts | 73° |
| 2026-05-01 12:09 | 47.30914 | 15.66159 | 23211 ft | 324 kts | 73° |
| 2026-05-01 12:09 | 47.31441 | 15.69393 | 22807 ft | 323 kts | 73° |
| 2026-05-01 12:09 | 47.31963 | 15.72597 | 22405 ft | 322 kts | 73° |
| 2026-05-01 12:10 | 47.32483 | 15.75806 | 21996 ft | 320 kts | 73° |
| 2026-05-01 12:10 | 47.33504 | 15.82159 | 21194 ft | 318 kts | 73° |
| 2026-05-01 12:10 | 47.34019 | 15.85380 | 20769 ft | 317 kts | 73° |
| 2026-05-01 12:11 | 47.35022 | 15.91673 | 19943 ft | 314 kts | 73° |
| 2026-05-01 12:11 | 47.35513 | 15.94773 | 19519 ft | 314 kts | 73° |
| 2026-05-01 12:11 | 47.36052 | 15.97882 | 19092 ft | 310 kts | 67° |
| 2026-05-01 12:12 | 47.36991 | 16.00712 | 18652 ft | 306 kts | 54° |
| 2026-05-01 12:12 | 47.38354 | 16.03096 | 18228 ft | 304 kts | 41° |
| 2026-05-01 12:12 | 47.40117 | 16.04981 | 17958 ft | 320 kts | 30° |
| 2026-05-01 12:12 | 47.42175 | 16.06248 | 17298 ft | 323 kts | 20° |
| 2026-05-01 12:13 | 47.44309 | 16.07292 | 16718 ft | 322 kts | 20° |
| 2026-05-01 12:13 | 47.46433 | 16.08337 | 16212 ft | 320 kts | 20° |
| 2026-05-01 12:13 | 47.48537 | 16.09377 | 15691 ft | 318 kts | 20° |
| 2026-05-01 12:13 | 47.50623 | 16.10410 | 15191 ft | 316 kts | 20° |
| 2026-05-01 12:14 | 47.52708 | 16.11446 | 14713 ft | 314 kts | 20° |
| 2026-05-01 12:14 | 47.54770 | 16.12472 | 14240 ft | 312 kts | 20° |
| 2026-05-01 12:14 | 47.56818 | 16.13491 | 13726 ft | 310 kts | 20° |
| 2026-05-01 12:14 | 47.58864 | 16.14505 | 13204 ft | 309 kts | 20° |
| 2026-05-01 12:15 | 47.60885 | 16.15512 | 12614 ft | 307 kts | 20° |
| 2026-05-01 12:15 | 47.62910 | 16.16521 | 12045 ft | 306 kts | 20° |
| 2026-05-01 12:15 | 47.64924 | 16.17526 | 11515 ft | 305 kts | 20° |
| 2026-05-01 12:15 | 47.66931 | 16.18530 | 11031 ft | 303 kts | 20° |
| 2026-05-01 12:16 | 47.68918 | 16.19526 | 10551 ft | 301 kts | 21° |
| 2026-05-01 12:16 | 47.70897 | 16.20518 | 10071 ft | 300 kts | 20° |
| 2026-05-01 12:16 | 47.72843 | 16.21497 | 9824 ft | 289 kts | 22° |
| 2026-05-01 12:16 | 47.74538 | 16.22900 | 9699 ft | 273 kts | 41° |
| 2026-05-01 12:17 | 47.75732 | 16.25001 | 9582 ft | 264 kts | 60° |
| 2026-05-01 12:17 | 47.76336 | 16.27554 | 9437 ft | 265 kts | 79° |
| 2026-05-01 12:17 | 47.76419 | 16.30319 | 9308 ft | 267 kts | 86° |
| 2026-05-01 12:17 | 47.76445 | 16.33085 | 9172 ft | 267 kts | 86° |
| 2026-05-01 12:18 | 47.76488 | 16.35848 | 8920 ft | 266 kts | 82° |
| 2026-05-01 12:18 | 47.77018 | 16.38427 | 8214 ft | 260 kts | 58° |
| 2026-05-01 12:18 | 47.78130 | 16.40538 | 7679 ft | 262 kts | 49° |
| 2026-05-01 12:18 | 47.79324 | 16.42591 | 7208 ft | 264 kts | 49° |
| 2026-05-01 12:19 | 47.80526 | 16.44663 | 6805 ft | 262 kts | 49° |
| 2026-05-01 12:19 | 47.81724 | 16.46728 | 6200 ft | 260 kts | 49° |
| 2026-05-01 12:19 | 47.82905 | 16.48767 | 5738 ft | 260 kts | 49° |
| 2026-05-01 12:19 | 47.84081 | 16.50798 | 5295 ft | 260 kts | 49° |
| 2026-05-01 12:20 | 47.85246 | 16.52815 | 4940 ft | 256 kts | 48° |
| 2026-05-01 12:20 | 47.86424 | 16.54859 | 4340 ft | 256 kts | 48° |
| 2026-05-01 12:20 | 47.87514 | 16.56757 | 4264 ft | 225 kts | 48° |
| 2026-05-01 12:20 | 47.88504 | 16.58482 | 4219 ft | 217 kts | 47° |
| 2026-05-01 12:21 | 47.89483 | 16.60183 | 4163 ft | 216 kts | 48° |
| 2026-05-01 12:21 | 47.90452 | 16.61863 | 4079 ft | 209 kts | 48° |
| 2026-05-01 12:21 | 47.91382 | 16.63476 | 3988 ft | 200 kts | 47° |
| 2026-05-01 12:21 | 47.92405 | 16.64843 | 3856 ft | 196 kts | 27° |
| 2026-05-01 12:22 | 47.93695 | 16.65358 | 3683 ft | 193 kts | 0° |
| 2026-05-01 12:22 | 47.95010 | 16.64978 | 3461 ft | 194 kts | 345° |
| 2026-05-01 12:22 | 47.96304 | 16.64428 | 3205 ft | 193 kts | 345° |
| 2026-05-01 12:22 | 47.97600 | 16.63880 | 2956 ft | 191 kts | 345° |
| 2026-05-01 12:23 | 47.98867 | 16.63347 | 2712 ft | 192 kts | 345° |
| 2026-05-01 12:23 | 48.00143 | 16.62810 | 2419 ft | 184 kts | 345° |
| 2026-05-01 12:23 | 48.01294 | 16.62325 | 2196 ft | 162 kts | 345° |
| 2026-05-01 12:23 | 48.02335 | 16.61886 | 1984 ft | 148 kts | 345° |
| 2026-05-01 12:24 | 48.03288 | 16.61485 | 1793 ft | 142 kts | 345° |
| 2026-05-01 12:24 | 48.04241 | 16.61084 | 1602 ft | 139 kts | 344° |
| 2026-05-01 12:24 | 48.05158 | 16.60698 | 1397 ft | 135 kts | 344° |
| 2026-05-01 12:24 | 48.06073 | 16.60302 | 1186 ft | 136 kts | 344° |
| 2026-05-01 12:25 | 48.06981 | 16.59917 | 1006 ft | 134 kts | 343° |
| 2026-05-01 12:25 | 48.08787 | 16.59171 | 670 ft | 134 kts | 345° |
| 2026-05-01 12:25 | 48.09637 | 16.58808 | 618 ft | 119 kts | 342° |
| 2026-05-01 12:26 | 48.10169 | 16.58582 | 618 ft | 38 kts | 344° |
| 2026-05-01 12:26 | 48.10427 | 16.58349 | 618 ft | 18 kts | 299° |
| 2026-05-01 12:26 | 48.10486 | 16.58196 | 621 ft | 16 kts | 306° |
| 2026-05-01 12:27 | 48.10594 | 16.58123 | 614 ft | 20 kts | 344° |
| 2026-05-01 12:27 | 48.10871 | 16.58007 | 619 ft | 21 kts | 344° |
| 2026-05-01 12:28 | 48.11158 | 16.57885 | 620 ft | 22 kts | 344° |
| 2026-05-01 12:28 | 48.11301 | 16.57825 | 621 ft | 22 kts | 344° |
| 2026-05-01 12:28 | 48.11596 | 16.57700 | 616 ft | 22 kts | 344° |
| 2026-05-01 12:29 | 48.11745 | 16.57638 | 614 ft | 22 kts | 344° |
| 2026-05-01 12:29 | 48.11830 | 16.57562 | 617 ft | 13 kts | 290° |
| 2026-05-01 12:29 | 48.11828 | 16.57294 | 618 ft | 13 kts | 295° |
| 2026-05-01 12:30 | 48.11878 | 16.57072 | 617 ft | 13 kts | 296° |
| 2026-05-01 12:30 | 48.11916 | 16.56956 | 613 ft | 11 kts | 296° |
| 2026-05-01 12:30 | 48.11950 | 16.56853 | 619 ft | 12 kts | 296° |
| 2026-05-01 12:31 | 48.11983 | 16.56748 | 616 ft | 10 kts | 295° |
| 2026-05-01 12:31 | 48.11968 | 16.56685 | 617 ft | 5 kts | 211° |
| 2026-05-01 12:31 | 48.11947 | 16.56669 | 612 ft | 2 kts | 206° |
| 2026-05-01 12:31 | 48.11936 | 16.56662 | 623 ft | 0 kts | 206° |